Time,TemperatureF,DewpointF,PressureIn,WindDirection,WindDirectionDegrees,WindSpeedMPH,WindSpeedGustMPH,Humidity,HourlyPrecipIn,Conditions,Clouds,dailyrainin,SolarRadiationWatts/m^2,SoftwareType,DateUTC
2013-01-09 00:02:00,45.1,40.9,29.98,SSW,192,0.0,0.0,85,0.00,,,0.00,0,Wunderground v.1.15,2013-01-09 08:02:00,
2013-01-09 00:12:00,44.9,40.7,29.98,SSW,192,0.0,0.0,85,0.00,,,0.00,0,Wunderground v.1.15,2013-01-09 08:12:00,
2013-01-09 00:22:00,44.8,40.6,29.98,SSW,193,0.0,0.0,85,0.00,,,0.00,0,Wunderground v.1.15,2013-01-09 08:22:00,
2013-01-09 00:32:00,44.5,40.6,29.98,SSW,193,0.0,0.0,86,0.00,,,0.00,0,Wunderground v.1.15,2013-01-09 08:32:00,
2013-01-09 00:42:00,44.3,40.4,29.98,SSW,193,0.0,0.0,86,0.00,,,0.00,0,Wunderground v.1.15,2013-01-09 08:42:00,
2013-01-09 00:52:00,44.3,40.4,29.98,SSW,193,0.0,0.0,86,0.00,,,0.00,0,Wunderground v.1.15,2013-01-09 08:52:00,
2013-01-09 01:02:00,44.2,40.3,29.97,SSW,192,0.0,0.0,86,0.00,,,0.00,0,Wunderground v.1.15,2013-01-09 09:02:00,
2013-01-09 01:12:00,44.2,40.6,29.97,SSW,193,0.0,0.0,87,0.00,,,0.00,0,Wunderground v.1.15,2013-01-09 09:12:00,
2013-01-09 01:22:00,44.1,40.5,29.97,SSW,193,0.0,0.0,87,0.00,,,0.00,0,Wunderground v.1.15,2013-01-09 09:22:00,
2013-01-09 01:42:00,44.1,40.8,29.98,SSW,192,0.0,0.0,88,0.00,,,0.00,0,Wunderground v.1.15,2013-01-09 09:42:00,
2013-01-09 01:52:00,44.1,40.8,29.98,SSW,193,0.0,0.0,88,0.00,,,0.00,0,Wunderground v.1.15,2013-01-09 09:52:00,
2013-01-09 02:02:00,44.1,40.8,29.97,SSW,193,0.0,0.0,88,0.00,,,0.00,0,Wunderground v.1.15,2013-01-09 10:02:00,
2013-01-09 02:12:00,43.9,40.6,29.97,SSW,193,0.0,0.0,88,0.00,,,0.00,0,Wunderground v.1.15,2013-01-09 10:12:00,
2013-01-09 02:22:00,43.9,40.6,29.98,SSW,193,0.0,0.0,88,0.00,,,0.00,0,Wunderground v.1.15,2013-01-09 10:22:00,
2013-01-09 02:32:00,43.9,40.9,29.97,SSW,193,0.0,0.0,89,0.00,,,0.00,0,Wunderground v.1.15,2013-01-09 10:32:00,
2013-01-09 02:37:00,43.9,40.9,29.97,SSW,192,0.0,0.0,89,0.00,,,0.00,0,Wunderground v.1.15,2013-01-09 10:37:00,
2013-01-09 02:42:00,43.9,40.9,29.97,SSW,192,0.0,0.0,89,0.00,,,0.00,0,Wunderground v.1.15,2013-01-09 10:42:00,
2013-01-09 02:52:00,43.8,40.8,29.97,SSW,192,0.0,0.0,89,0.00,,,0.00,0,Wunderground v.1.15,2013-01-09 10:52:00,
2013-01-09 03:02:00,43.8,40.8,29.96,SSW,193,0.0,0.0,89,0.00,,,0.00,0,Wunderground v.1.15,2013-01-09 11:02:00,
2013-01-09 03:12:00,43.8,40.8,29.96,SSW,193,0.0,0.0,89,0.00,,,0.00,0,Wunderground v.1.15,2013-01-09 11:12:00,
2013-01-09 03:22:00,43.6,40.6,29.96,SSW,193,0.0,0.0,89,0.00,,,0.00,0,Wunderground v.1.15,2013-01-09 11:22:00,
2013-01-09 03:32:00,43.6,40.6,29.96,SSW,193,0.0,0.0,89,0.00,,,0.00,0,Wunderground v.1.15,2013-01-09 11:32:00,
2013-01-09 03:42:00,43.5,40.5,29.96,SSW,192,0.0,0.0,89,0.00,,,0.00,0,Wunderground v.1.15,2013-01-09 11:42:00,
2013-01-09 03:52:00,43.5,40.5,29.96,SSW,193,0.0,0.0,89,0.00,,,0.00,0,Wunderground v.1.15,2013-01-09 11:52:00,
2013-01-09 04:02:00,43.3,40.3,29.96,SSW,192,0.0,0.0,89,0.00,,,0.00,0,Wunderground v.1.15,2013-01-09 12:02:00,
2013-01-09 04:12:00,43.3,40.3,29.96,SSW,193,0.0,0.0,89,0.00,,,0.00,0,Wunderground v.1.15,2013-01-09 12:12:00,
2013-01-09 04:22:00,43.3,40.3,29.95,SSW,192,0.0,0.0,89,0.00,,,0.00,0,Wunderground v.1.15,2013-01-09 12:22:00,
2013-01-09 04:32:00,43.3,40.3,29.96,SSW,193,0.0,0.0,89,0.00,,,0.00,0,Wunderground v.1.15,2013-01-09 12:32:00,
2013-01-09 04:42:00,43.2,40.2,29.96,SSW,193,0.0,0.0,89,0.00,,,0.00,0,Wunderground v.1.15,2013-01-09 12:42:00,
2013-01-09 04:52:00,43.1,40.1,29.96,SSW,192,0.0,0.0,89,0.00,,,0.00,0,Wunderground v.1.15,2013-01-09 12:52:00,
2013-01-09 05:02:00,43.1,40.1,29.95,SSW,192,0.0,0.0,89,0.00,,,0.00,0,Wunderground v.1.15,2013-01-09 13:02:00,
2013-01-09 05:12:00,43.2,40.2,29.95,SSW,192,0.0,0.0,89,0.00,,,0.00,0,Wunderground v.1.15,2013-01-09 13:12:00,
2013-01-09 05:22:00,43.2,40.2,29.95,SSW,193,0.0,0.0,89,0.00,,,0.00,0,Wunderground v.1.15,2013-01-09 13:22:00,
2013-01-09 05:32:00,43.3,40.3,29.95,SSW,192,0.0,0.0,89,0.00,,,0.00,0,Wunderground v.1.15,2013-01-09 13:32:00,
2013-01-09 05:42:00,43.3,40.3,29.95,SSW,193,0.0,0.0,89,0.00,,,0.00,0,Wunderground v.1.15,2013-01-09 13:42:00,
2013-01-09 05:52:00,43.5,40.5,29.94,SSW,193,0.0,0.0,89,0.00,,,0.00,0,Wunderground v.1.15,2013-01-09 13:52:00,
2013-01-09 06:02:00,43.3,40.3,29.94,SSW,192,0.0,0.0,89,0.00,,,0.00,0,Wunderground v.1.15,2013-01-09 14:02:00,
2013-01-09 06:12:00,43.3,40.3,29.94,SSW,192,0.0,0.0,89,0.00,,,0.00,0,Wunderground v.1.15,2013-01-09 14:12:00,
2013-01-09 06:22:00,43.1,40.1,29.95,SSW,193,0.0,0.0,89,0.00,,,0.00,0,Wunderground v.1.15,2013-01-09 14:22:00,
2013-01-09 06:32:00,42.9,39.9,29.94,SSW,192,0.0,0.0,89,0.00,,,0.00,0,Wunderground v.1.15,2013-01-09 14:32:00,
2013-01-09 06:42:00,42.9,39.9,29.94,SSW,193,0.0,0.0,89,0.00,,,0.00,0,Wunderground v.1.15,2013-01-09 14:42:00,
2013-01-09 06:52:00,42.8,39.8,29.95,SSW,193,0.0,0.0,89,0.00,,,0.00,0,Wunderground v.1.15,2013-01-09 14:52:00,
2013-01-09 07:02:00,42.8,39.8,29.95,SSW,192,0.0,0.0,89,0.00,,,0.00,0,Wunderground v.1.15,2013-01-09 15:02:00,
2013-01-09 07:12:00,42.6,39.6,29.95,SSW,193,0.0,0.0,89,0.00,,,0.00,0,Wunderground v.1.15,2013-01-09 15:12:00,
2013-01-09 07:22:00,42.3,39.3,29.95,SSW,193,0.0,0.0,89,0.00,,,0.00,0,Wunderground v.1.15,2013-01-09 15:22:00,
2013-01-09 07:32:00,42.3,39.3,29.96,SSW,192,0.0,0.0,89,0.00,,,0.00,0,Wunderground v.1.15,2013-01-09 15:32:00,
2013-01-09 07:42:00,42.3,39.3,29.96,SSW,193,0.0,0.0,89,0.00,,,0.00,0,Wunderground v.1.15,2013-01-09 15:42:00,
2013-01-09 07:52:00,42.2,39.5,29.96,SSW,193,0.0,0.0,90,0.00,,,0.00,5,Wunderground v.1.15,2013-01-09 15:52:00,
2013-01-09 08:02:00,42.3,39.6,29.97,SSW,193,0.0,0.0,90,0.00,,,0.00,9,Wunderground v.1.15,2013-01-09 16:02:00,
2013-01-09 08:12:00,42.3,39.6,29.97,SSW,193,0.0,0.0,90,0.00,,,0.00,14,Wunderground v.1.15,2013-01-09 16:12:00,
2013-01-09 08:22:00,42.5,39.8,29.96,SSW,192,0.0,0.0,90,0.00,,,0.00,19,Wunderground v.1.15,2013-01-09 16:22:00,
2013-01-09 08:32:00,42.8,40.4,29.96,SSW,193,0.0,0.0,91,0.00,,,0.00,26,Wunderground v.1.15,2013-01-09 16:32:00,
2013-01-09 08:42:00,42.9,40.5,29.96,SSW,193,0.0,0.0,91,0.00,,,0.00,32,Wunderground v.1.15,2013-01-09 16:42:00,
2013-01-09 08:52:00,43.3,41.1,29.96,SSW,193,0.0,0.0,92,0.00,,,0.00,33,Wunderground v.1.15,2013-01-09 16:52:00,
2013-01-09 09:02:00,43.6,41.4,29.95,SSW,192,0.0,0.0,92,0.00,,,0.00,46,Wunderground v.1.15,2013-01-09 17:02:00,
2013-01-09 09:12:00,43.9,41.7,29.95,SSW,193,0.0,0.0,92,0.00,,,0.00,40,Wunderground v.1.15,2013-01-09 17:12:00,
2013-01-09 09:22:00,44.2,42.0,29.95,SSW,192,0.0,0.0,92,0.00,,,0.00,48,Wunderground v.1.15,2013-01-09 17:22:00,
2013-01-09 09:32:00,44.5,42.3,29.95,SSW,193,0.0,0.0,92,0.00,,,0.00,55,Wunderground v.1.15,2013-01-09 17:32:00,
2013-01-09 09:42:00,44.9,42.7,29.95,SSW,193,0.0,0.0,92,0.00,,,0.00,55,Wunderground v.1.15,2013-01-09 17:42:00,
2013-01-09 09:52:00,45.2,43.0,29.95,SSW,192,0.0,0.0,92,0.00,,,0.00,69,Wunderground v.1.15,2013-01-09 17:52:00,
2013-01-09 10:02:00,46.0,43.8,29.95,SSW,193,0.0,0.0,92,0.00,,,0.00,70,Wunderground v.1.15,2013-01-09 18:02:00,
2013-01-09 10:12:00,46.5,44.0,29.95,SSW,193,0.0,0.0,91,0.00,,,0.00,77,Wunderground v.1.15,2013-01-09 18:12:00,
2013-01-09 10:22:00,47.1,44.6,29.95,SSW,193,0.0,0.0,91,0.00,,,0.00,77,Wunderground v.1.15,2013-01-09 18:22:00,
2013-01-09 10:32:00,47.9,45.7,29.95,SSW,192,0.0,0.0,92,0.00,,,0.00,90,Wunderground v.1.15,2013-01-09 18:32:00,
2013-01-09 10:42:00,48.5,46.0,29.95,SSW,193,0.0,0.0,91,0.00,,,0.00,77,Wunderground v.1.15,2013-01-09 18:42:00,
2013-01-09 10:47:00,48.6,46.1,29.95,SSW,193,0.0,0.0,91,0.00,,,0.00,83,Wunderground v.1.15,2013-01-09 18:47:00,
2013-01-09 10:52:00,48.8,45.4,29.95,SSW,193,0.0,0.0,88,0.00,,,0.00,90,Wunderground v.1.15,2013-01-09 18:52:00,
2013-01-09 10:57:00,48.8,44.5,29.95,SSW,192,0.0,0.0,85,0.00,,,0.00,123,Wunderground v.1.15,2013-01-09 18:57:00,
2013-01-09 11:02:00,49.1,44.2,29.94,SSW,213,0.0,0.0,83,0.00,,,0.00,93,Wunderground v.1.15,2013-01-09 19:02:00,
2013-01-09 11:12:00,49.8,44.2,29.94,SSW,213,0.0,0.0,81,0.00,,,0.00,118,Wunderground v.1.15,2013-01-09 19:12:00,
2013-01-09 11:17:00,50.1,44.2,29.93,SSW,213,0.0,0.0,80,0.00,,,0.00,227,Wunderground v.1.15,2013-01-09 19:17:00,
2013-01-09 11:22:00,50.5,44.6,29.93,SSW,213,0.0,0.0,80,0.00,,,0.00,252,Wunderground v.1.15,2013-01-09 19:22:00,
2013-01-09 11:32:00,51.3,44.7,29.92,SSW,213,0.0,0.0,78,0.00,,,0.00,111,Wunderground v.1.15,2013-01-09 19:32:00,
2013-01-09 11:42:00,51.9,44.2,29.92,SSW,213,0.0,0.0,75,0.00,,,0.00,111,Wunderground v.1.15,2013-01-09 19:42:00,
2013-01-09 11:52:00,52.3,44.6,29.91,SSW,213,0.0,0.0,75,0.00,,,0.00,109,Wunderground v.1.15,2013-01-09 19:52:00,
2013-01-09 12:02:00,52.8,44.7,29.90,SSW,213,0.0,0.0,74,0.00,,,0.00,102,Wunderground v.1.15,2013-01-09 20:02:00,
2013-01-09 12:12:00,53.1,45.4,29.90,SSW,213,0.0,0.0,75,0.00,,,0.00,91,Wunderground v.1.15,2013-01-09 20:12:00,
2013-01-09 12:22:00,53.3,44.9,29.89,SSW,213,0.0,0.0,73,0.00,,,0.00,91,Wunderground v.1.15,2013-01-09 20:22:00,
2013-01-09 12:32:00,53.5,45.1,29.89,SSW,213,0.0,0.0,73,0.00,,,0.00,84,Wunderground v.1.15,2013-01-09 20:32:00,
2013-01-09 12:47:00,53.6,45.2,29.89,SSW,213,0.0,0.0,73,0.00,,,0.00,88,Wunderground v.1.15,2013-01-09 20:47:00,
2013-01-09 12:52:00,53.6,45.5,29.89,SSW,213,0.0,0.0,74,0.00,,,0.00,79,Wunderground v.1.15,2013-01-09 20:52:00,
2013-01-09 13:02:00,53.8,46.1,29.88,SSW,213,0.0,0.0,75,0.00,,,0.00,72,Wunderground v.1.15,2013-01-09 21:02:00,
2013-01-09 13:12:00,53.8,46.1,29.88,SSW,213,0.0,0.0,75,0.00,,,0.00,65,Wunderground v.1.15,2013-01-09 21:12:00,
2013-01-09 13:22:00,53.8,46.4,29.89,SW,236,0.0,0.0,76,0.00,,,0.00,69,Wunderground v.1.15,2013-01-09 21:22:00,
2013-01-09 13:32:00,53.5,46.5,29.88,SW,236,0.0,0.0,77,0.00,,,0.00,63,Wunderground v.1.15,2013-01-09 21:32:00,
2013-01-09 13:42:00,52.9,46.6,29.88,SSE,150,0.0,0.0,79,0.00,,,0.00,67,Wunderground v.1.15,2013-01-09 21:42:00,
2013-01-09 13:52:00,52.5,45.8,29.88,ESE,121,0.0,0.0,78,0.00,,,0.00,56,Wunderground v.1.15,2013-01-09 21:52:00,
2013-01-09 21:06:00,41.3,38.6,29.92,SE,136,0.0,1.0,90,0.00,,,0.00,0,Wunderground v.1.15,2013-01-10 05:06:00,
2013-01-09 21:12:00,41.3,38.6,29.92,SE,136,0.0,0.0,90,0.00,,,0.00,0,Wunderground v.1.15,2013-01-10 05:12:00,
2013-01-09 21:17:00,41.3,38.6,29.92,SE,136,0.0,0.0,90,0.00,,,0.00,0,Wunderground v.1.15,2013-01-10 05:17:00,
2013-01-09 21:22:00,41.3,38.6,29.92,SE,136,0.0,0.0,90,0.00,,,0.00,0,Wunderground v.1.15,2013-01-10 05:22:00,
2013-01-09 21:26:00,41.3,38.6,29.92,SE,136,0.0,0.0,90,0.00,,,0.00,0,Wunderground v.1.15,2013-01-10 05:26:00,
2013-01-09 21:32:00,41.3,38.6,29.93,ESE,120,0.0,0.0,90,0.00,,,0.00,0,Wunderground v.1.15,2013-01-10 05:32:00,
2013-01-09 21:37:00,41.2,38.5,29.93,ESE,120,0.0,0.0,90,0.00,,,0.00,0,Wunderground v.1.15,2013-01-10 05:37:00,
2013-01-09 21:42:00,41.2,38.5,29.93,ESE,120,0.0,0.0,90,0.00,,,0.00,0,Wunderground v.1.15,2013-01-10 05:42:00,
2013-01-09 21:47:00,41.2,38.5,29.93,ESE,120,0.0,0.0,90,0.00,,,0.00,0,Wunderground v.1.15,2013-01-10 05:47:00,
2013-01-09 21:57:00,41.1,38.4,29.93,ESE,120,0.0,0.0,90,0.00,,,0.00,0,Wunderground v.1.15,2013-01-10 05:57:00,
2013-01-09 22:02:00,41.1,38.4,29.93,ESE,120,0.0,0.0,90,0.00,,,0.00,0,Wunderground v.1.15,2013-01-10 06:02:00,
2013-01-09 22:07:00,41.1,38.4,29.93,ESE,121,0.0,0.0,90,0.00,,,0.00,0,Wunderground v.1.15,2013-01-10 06:07:00,
2013-01-09 22:12:00,40.9,38.5,29.93,ESE,117,0.0,0.0,91,0.00,,,0.00,0,Wunderground v.1.15,2013-01-10 06:12:00,
2013-01-09 22:17:00,41.1,38.7,29.94,ESE,112,0.0,0.0,91,0.00,,,0.00,0,Wunderground v.1.15,2013-01-10 06:17:00,
2013-01-09 22:22:00,41.1,38.7,29.94,ESE,117,0.0,3.0,91,0.00,,,0.00,0,Wunderground v.1.15,2013-01-10 06:22:00,
2013-01-09 22:26:00,41.1,38.7,29.94,SE,127,0.0,3.0,91,0.00,,,0.00,0,Wunderground v.1.15,2013-01-10 06:26:00,
2013-01-09 22:32:00,40.9,38.2,29.95,ESE,120,0.0,0.0,90,0.00,,,0.00,0,Wunderground v.1.15,2013-01-10 06:32:00,
2013-01-09 22:37:00,40.9,38.2,29.95,ESE,109,0.0,0.0,90,0.00,,,0.00,0,Wunderground v.1.15,2013-01-10 06:37:00,
2013-01-09 22:42:00,40.9,38.2,29.95,ESE,114,0.0,0.0,90,0.00,,,0.00,0,Wunderground v.1.15,2013-01-10 06:42:00,
2013-01-09 22:46:00,40.9,38.2,29.95,ESE,114,0.0,0.0,90,0.00,,,0.00,0,Wunderground v.1.15,2013-01-10 06:46:00,
2013-01-09 22:52:00,40.8,37.8,29.95,ESE,114,0.0,0.0,89,0.00,,,0.00,0,Wunderground v.1.15,2013-01-10 06:52:00,
2013-01-09 23:02:00,40.8,37.8,29.95,East,100,0.0,0.0,89,0.00,,,0.00,0,Wunderground v.1.15,2013-01-10 07:02:00,
2013-01-09 23:06:00,40.8,37.8,29.95,East,100,0.0,0.0,89,0.00,,,0.00,0,Wunderground v.1.15,2013-01-10 07:06:00,
2013-01-09 23:12:00,40.8,37.8,29.95,East,100,0.0,0.0,89,0.00,,,0.00,0,Wunderground v.1.15,2013-01-10 07:12:00,
2013-01-09 23:17:00,40.6,37.6,29.95,East,100,0.0,0.0,89,0.00,,,0.00,0,Wunderground v.1.15,2013-01-10 07:17:00,
2013-01-09 23:22:00,40.6,37.6,29.95,East,100,0.0,0.0,89,0.00,,,0.00,0,Wunderground v.1.15,2013-01-10 07:22:00,
2013-01-09 23:32:00,40.3,37.3,29.95,SE,131,0.0,0.0,89,0.00,,,0.00,0,Wunderground v.1.15,2013-01-10 07:32:00,
2013-01-09 23:37:00,40.3,37.3,29.95,SE,131,0.0,0.0,89,0.00,,,0.00,0,Wunderground v.1.15,2013-01-10 07:37:00,
2013-01-09 23:42:00,40.2,37.2,29.95,SE,131,0.0,0.0,89,0.00,,,0.00,0,Wunderground v.1.15,2013-01-10 07:42:00,
2013-01-09 23:47:00,40.2,37.2,29.95,SE,131,0.0,0.0,89,0.00,,,0.00,0,Wunderground v.1.15,2013-01-10 07:47:00,
2013-01-09 23:52:00,40.2,37.2,29.95,SE,131,0.0,0.0,89,0.00,,,0.00,0,Wunderground v.1.15,2013-01-10 07:52:00,
2013-01-09 23:57:00,40.1,37.1,29.95,SE,131,0.0,0.0,89,0.00,,,0.00,0,Wunderground v.1.15,2013-01-10 07:57:00,